KLM985 EGLL-EHAM
Flight info
| Callsign | KLM985 |
|---|---|
| Flight time | 0h 38m |
| Altitude | 21000 |
| Route | BPK Q295 BRAIN M197 REDFA |
| Aircraft | A21N/M-SDE2E3FGHIRWXY/LB1 |
Departure
| Time | 2026-05-06 12:42 |
|---|---|
| Airport | London Heathrow Airport (EGLL) |
Arrival
| Time | 2026-05-06 13:20 |
|---|---|
| Airport | Amsterdam Airport Schiphol (EHAM) |
| Time | Latitude | Longitude | Altitude | Speed | Heading |
|---|---|---|---|---|---|
| 2026-05-06 12:29 | 51.46844 | -0.48029 | 94 ft | 0 kts | 269° |
| 2026-05-06 12:37 | 51.46844 | -0.48006 | 94 ft | 3 kts | 269° |
| 2026-05-06 12:38 | 51.46845 | -0.47975 | 94 ft | 3 kts | 269° |
| 2026-05-06 12:38 | 51.46845 | -0.47945 | 95 ft | 3 kts | 269° |
| 2026-05-06 12:38 | 51.46846 | -0.47916 | 93 ft | 3 kts | 273° |
| 2026-05-06 12:38 | 51.46847 | -0.47888 | 96 ft | 3 kts | 230° |
| 2026-05-06 12:39 | 51.46860 | -0.47875 | 92 ft | 0 kts | 177° |
| 2026-05-06 12:40 | 51.46833 | -0.47873 | 92 ft | 7 kts | 177° |
| 2026-05-06 12:40 | 51.46765 | -0.47869 | 92 ft | 13 kts | 179° |
| 2026-05-06 12:40 | 51.46668 | -0.47916 | 91 ft | 17 kts | 236° |
| 2026-05-06 12:41 | 51.46654 | -0.48109 | 95 ft | 19 kts | 265° |
| 2026-05-06 12:41 | 51.46610 | -0.48208 | 100 ft | 10 kts | 193° |
| 2026-05-06 12:41 | 51.46523 | -0.48206 | 97 ft | 15 kts | 166° |
| 2026-05-06 12:41 | 51.46481 | -0.47995 | 93 ft | 44 kts | 90° |
| 2026-05-06 12:42 | 51.46487 | -0.47114 | 97 ft | 114 kts | 90° |
| 2026-05-06 12:42 | 51.46475 | -0.45483 | 216 ft | 165 kts | 85° |
| 2026-05-06 12:42 | 51.46458 | -0.43606 | 814 ft | 179 kts | 86° |
| 2026-05-06 12:42 | 51.46695 | -0.41473 | 1046 ft | 209 kts | 56° |
| 2026-05-06 12:43 | 51.47618 | -0.39572 | 1727 ft | 221 kts | 44° |
| 2026-05-06 12:43 | 51.48722 | -0.37743 | 2522 ft | 235 kts | 43° |
| 2026-05-06 12:43 | 51.49891 | -0.35828 | 3268 ft | 243 kts | 43° |
| 2026-05-06 12:43 | 51.51069 | -0.33852 | 4057 ft | 248 kts | 46° |
| 2026-05-06 12:44 | 51.51965 | -0.31439 | 4848 ft | 255 kts | 63° |
| 2026-05-06 12:44 | 51.52813 | -0.28921 | 5588 ft | 258 kts | 54° |
| 2026-05-06 12:44 | 51.53821 | -0.26544 | 6363 ft | 262 kts | 51° |
| 2026-05-06 12:44 | 51.54919 | -0.24176 | 7118 ft | 266 kts | 49° |
| 2026-05-06 12:45 | 51.56065 | -0.21799 | 7876 ft | 271 kts | 49° |
| 2026-05-06 12:45 | 51.57236 | -0.19387 | 8658 ft | 275 kts | 49° |
| 2026-05-06 12:45 | 51.59624 | -0.14412 | 10192 ft | 287 kts | 49° |
| 2026-05-06 12:46 | 51.60878 | -0.11763 | 10552 ft | 307 kts | 50° |
| 2026-05-06 12:46 | 51.62214 | -0.08928 | 10831 ft | 329 kts | 51° |
| 2026-05-06 12:46 | 51.63632 | -0.05900 | 11103 ft | 349 kts | 51° |
| 2026-05-06 12:46 | 51.65124 | -0.02698 | 11501 ft | 363 kts | 51° |
| 2026-05-06 12:47 | 51.66655 | 0.00600 | 12100 ft | 370 kts | 51° |
| 2026-05-06 12:47 | 51.68207 | 0.03950 | 12780 ft | 376 kts | 51° |
| 2026-05-06 12:47 | 51.69783 | 0.07354 | 13505 ft | 381 kts | 51° |
| 2026-05-06 12:47 | 51.71380 | 0.10808 | 14106 ft | 388 kts | 51° |
| 2026-05-06 12:48 | 51.73003 | 0.14318 | 14786 ft | 390 kts | 52° |
| 2026-05-06 12:48 | 51.74636 | 0.17852 | 15406 ft | 395 kts | 51° |
| 2026-05-06 12:48 | 51.76234 | 0.21386 | 16031 ft | 399 kts | 56° |
| 2026-05-06 12:48 | 51.77514 | 0.25395 | 16640 ft | 405 kts | 69° |
| 2026-05-06 12:49 | 51.78286 | 0.29795 | 17250 ft | 410 kts | 77° |
| 2026-05-06 12:49 | 51.78825 | 0.34336 | 17890 ft | 413 kts | 80° |
| 2026-05-06 12:49 | 51.79230 | 0.38965 | 18403 ft | 418 kts | 82° |
| 2026-05-06 12:49 | 51.79570 | 0.43639 | 18963 ft | 420 kts | 83° |
| 2026-05-06 12:50 | 51.79784 | 0.46757 | 19273 ft | 423 kts | 83° |
| 2026-05-06 12:50 | 51.80110 | 0.51502 | 19753 ft | 427 kts | 83° |
| 2026-05-06 12:50 | 51.80449 | 0.56271 | 20318 ft | 428 kts | 83° |
| 2026-05-06 12:50 | 51.80803 | 0.61077 | 20735 ft | 433 kts | 83° |
| 2026-05-06 12:51 | 51.81310 | 0.65879 | 20946 ft | 433 kts | 78° |
| 2026-05-06 12:51 | 51.81947 | 0.70636 | 20969 ft | 434 kts | 77° |
| 2026-05-06 12:51 | 51.82646 | 0.75399 | 20967 ft | 435 kts | 76° |
| 2026-05-06 12:51 | 51.83376 | 0.80145 | 20965 ft | 435 kts | 75° |
| 2026-05-06 12:52 | 51.84171 | 0.84876 | 20968 ft | 435 kts | 73° |
| 2026-05-06 12:52 | 51.85023 | 0.89579 | 20966 ft | 435 kts | 73° |
| 2026-05-06 12:52 | 51.85901 | 0.94281 | 20966 ft | 435 kts | 72° |
| 2026-05-06 12:52 | 51.86777 | 0.98954 | 20957 ft | 435 kts | 73° |
| 2026-05-06 12:53 | 51.87649 | 1.03639 | 20959 ft | 434 kts | 73° |
| 2026-05-06 12:53 | 51.88511 | 1.08329 | 20958 ft | 434 kts | 73° |
| 2026-05-06 12:53 | 51.89352 | 1.12955 | 20958 ft | 434 kts | 73° |
| 2026-05-06 12:53 | 51.90198 | 1.17647 | 20957 ft | 434 kts | 73° |
| 2026-05-06 12:54 | 51.91041 | 1.22342 | 20958 ft | 434 kts | 73° |
| 2026-05-06 12:54 | 51.91881 | 1.27040 | 20958 ft | 434 kts | 73° |
| 2026-05-06 12:54 | 51.92718 | 1.31738 | 20957 ft | 434 kts | 73° |
| 2026-05-06 12:54 | 51.93554 | 1.36439 | 20957 ft | 434 kts | 73° |
| 2026-05-06 12:55 | 51.94388 | 1.41140 | 20952 ft | 434 kts | 74° |
| 2026-05-06 12:55 | 51.95220 | 1.45840 | 20953 ft | 434 kts | 74° |
| 2026-05-06 12:55 | 51.96051 | 1.50541 | 20951 ft | 434 kts | 74° |
| 2026-05-06 12:55 | 51.96882 | 1.55253 | 20952 ft | 435 kts | 74° |
| 2026-05-06 12:56 | 51.97710 | 1.59968 | 20955 ft | 435 kts | 74° |
| 2026-05-06 12:56 | 51.98537 | 1.64686 | 20955 ft | 435 kts | 74° |
| 2026-05-06 12:56 | 51.99343 | 1.69428 | 20958 ft | 435 kts | 75° |
| 2026-05-06 12:56 | 52.00094 | 1.74171 | 20958 ft | 435 kts | 76° |
| 2026-05-06 12:57 | 52.00825 | 1.78882 | 20955 ft | 435 kts | 76° |
| 2026-05-06 12:57 | 52.01560 | 1.83634 | 20955 ft | 435 kts | 76° |
| 2026-05-06 12:57 | 52.02297 | 1.88404 | 20955 ft | 435 kts | 76° |
| 2026-05-06 12:57 | 52.03031 | 1.93163 | 20960 ft | 435 kts | 76° |
| 2026-05-06 12:58 | 52.03764 | 1.97929 | 20951 ft | 435 kts | 76° |
| 2026-05-06 12:58 | 52.04496 | 2.02694 | 20952 ft | 435 kts | 76° |
| 2026-05-06 12:58 | 52.05228 | 2.07476 | 20954 ft | 440 kts | 76° |
| 2026-05-06 12:58 | 52.05978 | 2.12392 | 20948 ft | 456 kts | 76° |
| 2026-05-06 12:59 | 52.06749 | 2.17460 | 20947 ft | 466 kts | 76° |
| 2026-05-06 12:59 | 52.07527 | 2.22591 | 20951 ft | 468 kts | 76° |
| 2026-05-06 12:59 | 52.08304 | 2.27721 | 20952 ft | 468 kts | 76° |
| 2026-05-06 12:59 | 52.09079 | 2.32865 | 20952 ft | 468 kts | 76° |
| 2026-05-06 13:00 | 52.09852 | 2.38007 | 20947 ft | 468 kts | 77° |
| 2026-05-06 13:00 | 52.10624 | 2.43158 | 20949 ft | 468 kts | 77° |
| 2026-05-06 13:00 | 52.11523 | 2.48250 | 20944 ft | 469 kts | 68° |
| 2026-05-06 13:00 | 52.12962 | 2.52994 | 20952 ft | 468 kts | 60° |
| 2026-05-06 13:01 | 52.14602 | 2.57582 | 20944 ft | 469 kts | 59° |
| 2026-05-06 13:01 | 52.16253 | 2.62091 | 20943 ft | 469 kts | 59° |
| 2026-05-06 13:01 | 52.17927 | 2.66673 | 20944 ft | 470 kts | 59° |
| 2026-05-06 13:01 | 52.19592 | 2.71254 | 20944 ft | 469 kts | 59° |
| 2026-05-06 13:02 | 52.21251 | 2.75843 | 20944 ft | 470 kts | 59° |
| 2026-05-06 13:02 | 52.22904 | 2.80428 | 20921 ft | 469 kts | 59° |
| 2026-05-06 13:02 | 52.24541 | 2.84982 | 20444 ft | 461 kts | 59° |
| 2026-05-06 13:02 | 52.26141 | 2.89445 | 20046 ft | 449 kts | 59° |
| 2026-05-06 13:03 | 52.27690 | 2.93775 | 19778 ft | 433 kts | 59° |
| 2026-05-06 13:03 | 52.29186 | 2.97966 | 19470 ft | 421 kts | 59° |
| 2026-05-06 13:03 | 52.30650 | 3.02072 | 18960 ft | 414 kts | 59° |
| 2026-05-06 13:03 | 52.32086 | 3.06106 | 18452 ft | 408 kts | 59° |
| 2026-05-06 13:04 | 52.33495 | 3.10072 | 17787 ft | 406 kts | 59° |
| 2026-05-06 13:04 | 52.34901 | 3.14034 | 17209 ft | 401 kts | 59° |
| 2026-05-06 13:04 | 52.36299 | 3.17979 | 16518 ft | 399 kts | 59° |
| 2026-05-06 13:04 | 52.37677 | 3.21874 | 15977 ft | 393 kts | 59° |
| 2026-05-06 13:05 | 52.39043 | 3.25741 | 15329 ft | 391 kts | 58° |
| 2026-05-06 13:05 | 52.40390 | 3.29564 | 14817 ft | 384 kts | 58° |
| 2026-05-06 13:05 | 52.41722 | 3.33345 | 14191 ft | 382 kts | 59° |
| 2026-05-06 13:05 | 52.43040 | 3.37094 | 13680 ft | 377 kts | 59° |
| 2026-05-06 13:06 | 52.44302 | 3.40819 | 13058 ft | 373 kts | 63° |
| 2026-05-06 13:06 | 52.45179 | 3.44809 | 12460 ft | 370 kts | 75° |
| 2026-05-06 13:06 | 52.45440 | 3.48959 | 11890 ft | 367 kts | 94° |
| 2026-05-06 13:06 | 52.44866 | 3.53020 | 11335 ft | 363 kts | 109° |
| 2026-05-06 13:07 | 52.43959 | 3.56791 | 11122 ft | 349 kts | 112° |
| 2026-05-06 13:07 | 52.43046 | 3.60391 | 10932 ft | 335 kts | 112° |
| 2026-05-06 13:07 | 52.42163 | 3.63845 | 10760 ft | 321 kts | 112° |
| 2026-05-06 13:07 | 52.41320 | 3.67111 | 10536 ft | 308 kts | 112° |
| 2026-05-06 13:08 | 52.40489 | 3.70294 | 10017 ft | 301 kts | 112° |
| 2026-05-06 13:08 | 52.39654 | 3.73461 | 9569 ft | 297 kts | 112° |
| 2026-05-06 13:08 | 52.38847 | 3.76507 | 9196 ft | 292 kts | 112° |
| 2026-05-06 13:08 | 52.38041 | 3.79526 | 8752 ft | 289 kts | 112° |
| 2026-05-06 13:09 | 52.37226 | 3.82525 | 8312 ft | 287 kts | 111° |
| 2026-05-06 13:09 | 52.36393 | 3.85489 | 7865 ft | 285 kts | 112° |
| 2026-05-06 13:09 | 52.35572 | 3.88417 | 7484 ft | 281 kts | 112° |
| 2026-05-06 13:09 | 52.34758 | 3.91296 | 7088 ft | 277 kts | 112° |
| 2026-05-06 13:10 | 52.33953 | 3.94146 | 6690 ft | 275 kts | 111° |
| 2026-05-06 13:10 | 52.33134 | 3.96965 | 6290 ft | 272 kts | 111° |
| 2026-05-06 13:10 | 52.32342 | 3.99721 | 6047 ft | 263 kts | 112° |
| 2026-05-06 13:10 | 52.31565 | 4.02399 | 5629 ft | 260 kts | 112° |
| 2026-05-06 13:11 | 52.30796 | 4.05087 | 5150 ft | 260 kts | 112° |
| 2026-05-06 13:11 | 52.30050 | 4.07732 | 4711 ft | 258 kts | 112° |
| 2026-05-06 13:11 | 52.29299 | 4.10360 | 4111 ft | 253 kts | 111° |
| 2026-05-06 13:11 | 52.28540 | 4.12973 | 3539 ft | 256 kts | 112° |
| 2026-05-06 13:12 | 52.27775 | 4.15577 | 3128 ft | 253 kts | 112° |
| 2026-05-06 13:12 | 52.27011 | 4.18168 | 2675 ft | 252 kts | 111° |
| 2026-05-06 13:12 | 52.26250 | 4.20734 | 2222 ft | 251 kts | 112° |
| 2026-05-06 13:12 | 52.25501 | 4.23257 | 2023 ft | 240 kts | 112° |
| 2026-05-06 13:13 | 52.24792 | 4.25599 | 2030 ft | 219 kts | 112° |
| 2026-05-06 13:13 | 52.24139 | 4.27702 | 2029 ft | 197 kts | 111° |
| 2026-05-06 13:13 | 52.23530 | 4.29576 | 2031 ft | 179 kts | 112° |
| 2026-05-06 13:13 | 52.22953 | 4.31337 | 2017 ft | 175 kts | 113° |
| 2026-05-06 13:14 | 52.22388 | 4.33095 | 2006 ft | 175 kts | 112° |
| 2026-05-06 13:14 | 52.21824 | 4.34855 | 1997 ft | 176 kts | 112° |
| 2026-05-06 13:14 | 52.21264 | 4.36605 | 1995 ft | 175 kts | 112° |
| 2026-05-06 13:14 | 52.20721 | 4.38375 | 1989 ft | 173 kts | 105° |
| 2026-05-06 13:15 | 52.20451 | 4.40259 | 1997 ft | 168 kts | 94° |
| 2026-05-06 13:15 | 52.20297 | 4.42113 | 1997 ft | 163 kts | 92° |
| 2026-05-06 13:15 | 52.20169 | 4.43939 | 2000 ft | 162 kts | 92° |
| 2026-05-06 13:15 | 52.20042 | 4.45766 | 1987 ft | 163 kts | 92° |
| 2026-05-06 13:16 | 52.19906 | 4.47624 | 1998 ft | 167 kts | 92° |
| 2026-05-06 13:16 | 52.19862 | 4.49512 | 1990 ft | 166 kts | 77° |
| 2026-05-06 13:16 | 52.20218 | 4.51251 | 1991 ft | 159 kts | 62° |
| 2026-05-06 13:16 | 52.20753 | 4.52812 | 1996 ft | 157 kts | 57° |
| 2026-05-06 13:17 | 52.21335 | 4.54323 | 1989 ft | 157 kts | 55° |
| 2026-05-06 13:17 | 52.21926 | 4.55829 | 1993 ft | 157 kts | 55° |
| 2026-05-06 13:17 | 52.22513 | 4.57335 | 1994 ft | 157 kts | 56° |
| 2026-05-06 13:17 | 52.23090 | 4.58826 | 1988 ft | 158 kts | 56° |
| 2026-05-06 13:18 | 52.23677 | 4.60345 | 1936 ft | 158 kts | 55° |
| 2026-05-06 13:18 | 52.24267 | 4.61862 | 1751 ft | 158 kts | 55° |
| 2026-05-06 13:18 | 52.24856 | 4.63371 | 1507 ft | 157 kts | 55° |
| 2026-05-06 13:18 | 52.25441 | 4.64872 | 1292 ft | 157 kts | 55° |
| 2026-05-06 13:19 | 52.26026 | 4.66373 | 1071 ft | 157 kts | 55° |
| 2026-05-06 13:19 | 52.26614 | 4.67883 | 846 ft | 157 kts | 55° |
| 2026-05-06 13:19 | 52.27202 | 4.69393 | 658 ft | 156 kts | 55° |
| 2026-05-06 13:19 | 52.27777 | 4.70871 | 432 ft | 154 kts | 57° |
| 2026-05-06 13:20 | 52.28370 | 4.72346 | 237 ft | 156 kts | 57° |
| 2026-05-06 13:20 | 52.28949 | 4.73826 | 32 ft | 155 kts | 58° |
| 2026-05-06 13:20 | 52.29469 | 4.75176 | -2 ft | 104 kts | 58° |
| 2026-05-06 13:20 | 52.29731 | 4.75751 | -1 ft | 39 kts | 29° |
| 2026-05-06 13:21 | 52.29892 | 4.75898 | 0 ft | 0 kts | 28° |
| 2026-05-06 13:21 | 52.29893 | 4.75899 | 0 ft | 0 kts | 28° |
| 2026-05-06 13:21 | 52.29896 | 4.75902 | 0 ft | 1 kts | 28° |
| 2026-05-06 13:21 | 52.29902 | 4.75907 | 0 ft | 1 kts | 28° |
| 2026-05-06 13:22 | 52.29904 | 4.75908 | 0 ft | 0 kts | 28° |
| 2026-05-06 13:22 | 52.29904 | 4.75909 | 0 ft | 0 kts | 28° |
| 2026-05-06 13:22 | 52.29910 | 4.75913 | 0 ft | 3 kts | 28° |
| 2026-05-06 13:23 | 52.29946 | 4.75945 | 0 ft | 9 kts | 28° |
| 2026-05-06 13:23 | 52.30004 | 4.76029 | 0 ft | 13 kts | 53° |
| 2026-05-06 13:23 | 52.30063 | 4.76175 | 0 ft | 17 kts | 57° |
| 2026-05-06 13:23 | 52.30134 | 4.76355 | 1 ft | 20 kts | 57° |
| 2026-05-06 13:24 | 52.30214 | 4.76565 | 1 ft | 23 kts | 59° |
| 2026-05-06 13:24 | 52.30303 | 4.76799 | 0 ft | 26 kts | 58° |
| 2026-05-06 13:24 | 52.30406 | 4.77024 | 0 ft | 18 kts | 25° |
| 2026-05-06 13:24 | 52.30507 | 4.76973 | 0 ft | 18 kts | 325° |
| 2026-05-06 13:25 | 52.30614 | 4.76874 | 1 ft | 15 kts | 347° |
| 2026-05-06 13:25 | 52.30681 | 4.76846 | 1 ft | 1 kts | 346° |
| 2026-05-06 13:25 | 52.30702 | 4.76852 | 1 ft | 5 kts | 18° |
| 2026-05-06 13:25 | 52.30726 | 4.76874 | 1 ft | 0 kts | 34° |
| 2026-05-06 13:26 | 52.30727 | 4.76875 | 0 ft | 0 kts | 36° |
| 2026-05-06 13:27 | 52.30727 | 4.76876 | 1 ft | 0 kts | 39° |